Time;durP1;ratioP1;P1;durP2;ratioP2;P2;SDS_P1;SDS_P2;PMS_P1;PMS_P2;Temp;Humidity;BMP_temperature;BMP_pressure;BME280_temperature;BME280_humidity;BME280_pressure;Samples;Min_cycle;Max_cycle;Signal;HPM_P1;HPM_P2
2021/12/12 00:00:39;;;;;;;24.40;13.70;;;;;;;;;;5041631;28;20622;-75
2021/12/12 00:03:19;;;;;;;21.67;12.55;;;;;;;;;;5041691;28;20532;-73
2021/12/12 00:05:53;;;;;;;22.10;12.57;;;;;;;;;;5042297;28;20378;-73
2021/12/12 00:08:20;;;;;;;23.80;13.88;;;;;;;;;;5041574;28;20072;-72
2021/12/12 00:10:53;;;;;;;24.73;13.43;;;;;;;;;;5043051;28;20037;-73
2021/12/12 00:13:27;;;;;;;22.40;13.80;;;;;;;;;;5043196;28;20495;-73
2021/12/12 00:15:52;;;;;;;20.40;12.82;;;;;;;;;;5041534;28;20037;-73
2021/12/12 00:18:18;;;;;;;19.05;11.80;;;;;;;;;;5044003;28;20028;-73
2021/12/12 00:20:45;;;;;;;22.60;13.05;;;;;;;;;;5049126;28;20154;-74
2021/12/12 00:23:10;;;;;;;18.73;11.80;;;;;;;;;;5050698;28;20037;-75
2021/12/12 00:25:40;;;;;;;22.40;12.43;;;;;;;;;;5054064;28;20071;-72
2021/12/12 00:28:07;;;;;;;23.25;13.95;;;;;;;;;;5055790;28;20439;-73
2021/12/12 00:30:33;;;;;;;22.27;13.05;;;;;;;;;;5037025;28;20029;-74
2021/12/12 00:32:58;;;;;;;20.20;12.68;;;;;;;;;;5050561;28;20125;-74
2021/12/12 00:35:24;;;;;;;17.45;12.15;;;;;;;;;;5047106;28;20058;-76
2021/12/12 00:37:56;;;;;;;22.52;13.07;;;;;;;;;;5044116;28;20488;-75
2021/12/12 00:40:28;;;;;;;19.38;12.63;;;;;;;;;;5058577;28;20538;-72
2021/12/12 00:42:56;;;;;;;21.65;13.13;;;;;;;;;;5044145;28;20082;-73
2021/12/12 00:45:22;;;;;;;21.30;12.85;;;;;;;;;;5043954;28;20060;-72
2021/12/12 00:47:49;;;;;;;21.27;12.98;;;;;;;;;;5043688;28;20029;-74
2021/12/12 00:50:37;;;;;;;19.48;11.80;;;;;;;;;;5043316;28;20050;-75
2021/12/12 00:53:05;;;;;;;19.30;11.15;;;;;;;;;;5058512;28;20075;-76
2021/12/12 00:55:37;;;;;;;21.02;12.45;;;;;;;;;;5042922;28;20460;-73
2021/12/12 00:58:06;;;;;;;19.42;11.98;;;;;;;;;;5041395;28;20041;-74
2021/12/12 01:00:37;;;;;;;20.55;12.18;;;;;;;;;;5041770;28;20033;-73
2021/12/12 01:03:07;;;;;;;18.00;12.13;;;;;;;;;;5040973;28;20051;-75
2021/12/12 01:05:32;;;;;;;20.50;12.52;;;;;;;;;;5042219;28;20032;-75
2021/12/12 01:07:58;;;;;;;21.60;13.27;;;;;;;;;;5041671;28;20098;-72
2021/12/12 01:10:38;;;;;;;22.95;13.63;;;;;;;;;;5042472;28;20043;-72
2021/12/12 01:13:06;;;;;;;21.10;13.07;;;;;;;;;;5041281;28;20102;-74
2021/12/12 01:15:35;;;;;;;20.98;13.40;;;;;;;;;;5041856;28;20043;-74
2021/12/12 01:18:09;;;;;;;24.92;14.30;;;;;;;;;;5041682;28;20072;-73
2021/12/12 01:20:40;;;;;;;20.67;13.63;;;;;;;;;;5041654;28;20436;-75
2021/12/12 01:23:18;;;;;;;20.73;12.93;;;;;;;;;;5040629;28;20128;-73
2021/12/12 01:25:47;;;;;;;20.17;13.02;;;;;;;;;;5041598;28;21048;-72
2021/12/12 01:28:17;;;;;;;18.73;11.70;;;;;;;;;;5041724;28;20120;-75
2021/12/12 01:30:43;;;;;;;17.83;11.25;;;;;;;;;;5041491;28;20107;-72
2021/12/12 01:33:20;;;;;;;16.92;11.35;;;;;;;;;;5040763;28;20037;-73
2021/12/12 01:35:46;;;;;;;20.27;12.02;;;;;;;;;;5041110;28;20037;-74
2021/12/12 01:40:58;;;;;;;20.42;12.00;;;;;;;;;;5041357;28;20040;-75
2021/12/12 01:43:26;;;;;;;17.17;12.10;;;;;;;;;;5041731;28;21082;-73
2021/12/12 01:46:01;;;;;;;18.08;12.15;;;;;;;;;;5040366;28;20041;-73
2021/12/12 01:48:36;;;;;;;20.63;12.63;;;;;;;;;;5048470;28;20037;-74
2021/12/12 01:51:05;;;;;;;19.10;12.35;;;;;;;;;;5040433;28;20037;-73
2021/12/12 01:53:34;;;;;;;19.60;12.30;;;;;;;;;;5041371;28;20110;-75
2021/12/12 01:56:20;;;;;;;22.08;12.95;;;;;;;;;;5038952;28;20049;-74
2021/12/12 01:58:52;;;;;;;21.92;12.30;;;;;;;;;;5039645;28;20036;-73
2021/12/12 02:01:22;;;;;;;22.63;13.07;;;;;;;;;;5041101;28;20426;-73
2021/12/12 02:03:54;;;;;;;18.45;12.23;;;;;;;;;;5039839;28;20058;-73
2021/12/12 02:06:21;;;;;;;19.58;12.50;;;;;;;;;;5040216;28;20968;-74
2021/12/12 02:08:49;;;;;;;19.00;12.25;;;;;;;;;;5039294;28;20036;-74
2021/12/12 02:11:19;;;;;;;19.23;11.52;;;;;;;;;;5039312;28;20032;-73
2021/12/12 02:13:48;;;;;;;20.15;11.70;;;;;;;;;;5039448;28;20043;-75
2021/12/12 02:16:15;;;;;;;19.08;10.60;;;;;;;;;;5040345;28;20033;-72
2021/12/12 02:18:49;;;;;;;17.95;11.95;;;;;;;;;;5040008;28;20032;-74
2021/12/12 02:21:28;;;;;;;17.45;10.65;;;;;;;;;;5039189;28;20044;-75
2021/12/12 02:37:24;;;;;;;12.13;8.25;;;;;;;;;;5040572;28;20419;-73
2021/12/12 02:39:50;;;;;;;11.13;7.65;;;;;;;;;;5038280;28;20049;-76
2021/12/12 02:42:21;;;;;;;18.10;9.30;;;;;;;;;;5040596;28;20502;-75
2021/12/12 02:44:51;;;;;;;16.65;9.60;;;;;;;;;;5040479;28;20040;-76
2021/12/12 02:47:20;;;;;;;13.45;7.90;;;;;;;;;;5038758;28;20562;-76
2021/12/12 02:49:56;;;;;;;17.67;11.05;;;;;;;;;;5036965;28;20036;-75
2021/12/12 02:52:29;;;;;;;18.95;10.32;;;;;;;;;;5038955;28;20971;-74
2021/12/12 02:55:02;;;;;;;19.48;10.85;;;;;;;;;;5040930;28;20036;-76
2021/12/12 02:57:28;;;;;;;19.17;10.77;;;;;;;;;;5040430;28;20045;-74
2021/12/12 02:59:54;;;;;;;17.40;9.07;;;;;;;;;;5040571;28;20075;-74
2021/12/12 03:02:28;;;;;;;17.50;11.02;;;;;;;;;;5039329;28;20078;-75
2021/12/12 03:04:56;;;;;;;9.48;6.65;;;;;;;;;;5043027;28;20052;-74
2021/12/12 03:07:22;;;;;;;17.30;8.65;;;;;;;;;;5058981;28;20407;-75
2021/12/12 03:09:54;;;;;;;16.02;9.30;;;;;;;;;;5044357;28;20518;-76
2021/12/12 03:12:24;;;;;;;16.87;10.23;;;;;;;;;;5043388;28;20605;-75
2021/12/12 03:14:51;;;;;;;18.40;10.75;;;;;;;;;;5044050;28;20283;-75
2021/12/12 03:17:21;;;;;;;11.77;7.47;;;;;;;;;;5043982;28;20044;-75
2021/12/12 03:19:49;;;;;;;16.77;10.45;;;;;;;;;;5042868;28;20041;-76
2021/12/12 03:22:16;;;;;;;18.75;9.88;;;;;;;;;;5044138;28;20215;-74
2021/12/12 03:24:42;;;;;;;11.38;6.65;;;;;;;;;;5042779;28;20495;-76
2021/12/12 03:27:08;;;;;;;8.85;6.40;;;;;;;;;;5043873;28;20041;-77
2021/12/12 03:29:36;;;;;;;11.80;8.05;;;;;;;;;;5026685;28;20546;-75
2021/12/12 03:32:09;;;;;;;21.70;10.45;;;;;;;;;;5043543;28;20029;-75
2021/12/12 03:34:38;;;;;;;17.05;10.02;;;;;;;;;;5043170;28;20047;-77
2021/12/12 03:37:06;;;;;;;13.60;8.60;;;;;;;;;;5042195;28;20790;-74
2021/12/12 03:39:36;;;;;;;15.57;8.88;;;;;;;;;;5042260;28;20090;-74
2021/12/12 03:42:07;;;;;;;12.50;8.80;;;;;;;;;;5043527;28;20044;-75
2021/12/12 03:44:34;;;;;;;18.23;11.33;;;;;;;;;;5042523;28;20029;-74
2021/12/12 03:47:09;;;;;;;14.00;7.47;;;;;;;;;;5042974;28;20040;-75
2021/12/12 03:49:37;;;;;;;16.92;10.40;;;;;;;;;;5042590;28;20146;-74
2021/12/12 03:52:05;;;;;;;16.95;9.60;;;;;;;;;;5042054;28;20033;-75
2021/12/12 03:54:31;;;;;;;15.73;8.95;;;;;;;;;;5041917;28;20044;-74
2021/12/12 03:56:57;;;;;;;10.52;7.28;;;;;;;;;;5042721;28;20049;-74
2021/12/12 03:59:23;;;;;;;18.15;10.57;;;;;;;;;;5043305;28;20025;-75
2021/12/12 04:01:51;;;;;;;16.45;10.80;;;;;;;;;;5043193;28;20660;-75
2021/12/12 04:04:39;;;;;;;11.90;7.63;;;;;;;;;;5043256;28;20037;-75
2021/12/12 04:07:17;;;;;;;15.77;9.65;;;;;;;;;;5042946;28;20095;-75
2021/12/12 04:09:43;;;;;;;11.98;7.65;;;;;;;;;;5043134;28;20609;-75
2021/12/12 04:12:13;;;;;;;16.55;10.48;;;;;;;;;;5043105;28;20120;-78
2021/12/12 04:14:39;;;;;;;13.73;7.65;;;;;;;;;;5040582;28;20049;-77
2021/12/12 04:17:11;;;;;;;10.57;6.90;;;;;;;;;;5043075;28;20045;-78
2021/12/12 04:19:37;;;;;;;16.48;9.48;;;;;;;;;;5043729;28;20673;-75
2021/12/12 04:22:04;;;;;;;12.77;8.27;;;;;;;;;;5042916;28;20037;-75
2021/12/12 04:24:33;;;;;;;9.00;4.97;;;;;;;;;;5042895;28;20037;-78
2021/12/12 04:26:59;;;;;;;16.08;10.13;;;;;;;;;;5041485;28;20040;-74
2021/12/12 04:29:28;;;;;;;14.60;8.50;;;;;;;;;;5041977;28;20075;-74
2021/12/12 04:32:04;;;;;;;16.60;8.82;;;;;;;;;;5042731;28;20083;-75
2021/12/12 04:34:33;;;;;;;13.70;9.13;;;;;;;;;;5041118;28;20040;-77
2021/12/12 04:37:00;;;;;;;15.80;11.02;;;;;;;;;;5042680;28;20423;-77
2021/12/12 04:39:31;;;;;;;15.93;10.55;;;;;;;;;;5042627;28;20071;-77
2021/12/12 04:42:14;;;;;;;16.70;9.70;;;;;;;;;;5041834;28;20927;-78
2021/12/12 04:44:41;;;;;;;17.45;9.98;;;;;;;;;;5042549;28;20025;-74
2021/12/12 04:50:30;;;;;;;8.05;6.45;;;;;;;;;;5039880;28;20041;-76
2021/12/12 04:53:12;;;;;;;22.45;10.63;;;;;;;;;;5041365;28;20037;-77
2021/12/12 04:55:49;;;;;;;10.75;7.10;;;;;;;;;;5041214;28;21160;-78
2021/12/12 04:58:33;;;;;;;15.52;9.48;;;;;;;;;;5042147;28;20074;-78
2021/12/12 05:01:22;;;;;;;19.05;9.13;;;;;;;;;;5040285;28;20057;-76
2021/12/12 05:04:13;;;;;;;12.80;8.05;;;;;;;;;;5041428;28;20469;-74
2021/12/12 05:07:01;;;;;;;11.55;8.15;;;;;;;;;;5042037;28;20098;-76
2021/12/12 05:09:33;;;;;;;16.92;9.15;;;;;;;;;;5042058;28;20049;-75
2021/12/12 05:12:31;;;;;;;14.50;8.75;;;;;;;;;;5042150;28;20097;-76
2021/12/12 05:15:17;;;;;;;13.02;8.48;;;;;;;;;;5021470;28;20064;-79
2021/12/12 05:17:48;;;;;;;16.60;9.50;;;;;;;;;;5040561;28;20438;-77
2021/12/12 05:20:26;;;;;;;13.27;8.63;;;;;;;;;;5040866;28;20041;-78
2021/12/12 05:22:53;;;;;;;15.60;8.50;;;;;;;;;;5042174;28;20029;-77
2021/12/12 05:25:28;;;;;;;14.18;8.55;;;;;;;;;;5040663;28;20142;-77
2021/12/12 05:27:57;;;;;;;18.45;9.15;;;;;;;;;;5041550;28;20029;-76
2021/12/12 05:30:27;;;;;;;16.02;9.20;;;;;;;;;;5043000;28;20033;-80
2021/12/12 05:32:54;;;;;;;14.90;10.05;;;;;;;;;;5042068;28;20100;-77
2021/12/12 05:35:24;;;;;;;14.30;8.77;;;;;;;;;;5040120;28;20784;-78
2021/12/12 05:37:53;;;;;;;19.83;8.48;;;;;;;;;;5041453;28;20036;-77
2021/12/12 05:40:22;;;;;;;12.80;8.48;;;;;;;;;;5041042;28;20075;-75
2021/12/12 05:42:50;;;;;;;12.38;8.07;;;;;;;;;;5041648;28;20136;-74
2021/12/12 05:45:16;;;;;;;14.98;8.73;;;;;;;;;;5041346;28;20562;-76
2021/12/12 05:47:43;;;;;;;13.85;8.30;;;;;;;;;;5040691;28;20116;-75
2021/12/12 05:50:11;;;;;;;18.23;9.00;;;;;;;;;;5041118;28;20139;-75
2021/12/12 05:52:37;;;;;;;18.10;8.52;;;;;;;;;;5040527;28;20029;-78
2021/12/12 05:55:05;;;;;;;19.58;9.35;;;;;;;;;;5041336;28;20031;-78
2021/12/12 05:57:32;;;;;;;15.32;8.50;;;;;;;;;;5038526;28;20487;-76
2021/12/12 05:59:59;;;;;;;13.27;8.15;;;;;;;;;;5041104;28;20041;-76
2021/12/12 06:02:26;;;;;;;14.80;8.57;;;;;;;;;;5040628;28;20033;-78
2021/12/12 06:04:56;;;;;;;11.88;8.00;;;;;;;;;;5040550;28;20440;-75
2021/12/12 06:07:22;;;;;;;13.20;8.15;;;;;;;;;;5038712;28;20029;-79
2021/12/12 06:09:49;;;;;;;12.65;8.00;;;;;;;;;;5037326;28;20037;-75
2021/12/12 06:12:16;;;;;;;13.38;8.85;;;;;;;;;;5039687;28;20041;-74
2021/12/12 06:14:43;;;;;;;12.48;8.43;;;;;;;;;;5039524;28;20116;-74
2021/12/12 06:17:12;;;;;;;16.75;8.10;;;;;;;;;;5038051;28;20044;-77
2021/12/12 06:19:38;;;;;;;12.68;8.13;;;;;;;;;;5038690;28;20048;-81
2021/12/12 06:22:05;;;;;;;15.98;9.40;;;;;;;;;;5040439;28;20491;-76
2021/12/12 06:24:33;;;;;;;13.77;8.55;;;;;;;;;;5039553;28;20041;-74
2021/12/12 06:27:13;;;;;;;13.80;8.38;;;;;;;;;;5039611;28;20094;-81
2021/12/12 06:29:39;;;;;;;15.82;8.98;;;;;;;;;;5041079;28;20447;-74
2021/12/12 06:32:05;;;;;;;16.27;9.13;;;;;;;;;;5039898;28;20044;-75
2021/12/12 06:34:33;;;;;;;12.00;8.55;;;;;;;;;;5039407;28;20040;-74
2021/12/12 06:36:59;;;;;;;12.02;8.00;;;;;;;;;;5043152;28;20033;-79
2021/12/12 06:39:25;;;;;;;14.65;7.88;;;;;;;;;;5046195;28;20037;-74
2021/12/12 06:41:52;;;;;;;13.35;7.28;;;;;;;;;;5046196;28;20036;-76
2021/12/12 06:44:17;;;;;;;13.73;7.43;;;;;;;;;;5046909;28;20033;-75
2021/12/12 06:46:45;;;;;;;10.80;6.72;;;;;;;;;;5046604;28;20040;-76
2021/12/12 06:49:14;;;;;;;10.25;6.38;;;;;;;;;;5046998;28;20119;-76
2021/12/12 06:51:44;;;;;;;12.50;7.43;;;;;;;;;;5046074;28;20044;-74
2021/12/12 06:54:09;;;;;;;15.20;7.78;;;;;;;;;;5047051;28;20032;-74
2021/12/12 06:56:36;;;;;;;10.45;6.75;;;;;;;;;;5050342;28;20410;-77
2021/12/12 06:59:03;;;;;;;11.27;6.50;;;;;;;;;;5051725;28;20479;-76
2021/12/12 07:01:32;;;;;;;12.52;6.95;;;;;;;;;;5052103;28;20068;-76
2021/12/12 07:03:59;;;;;;;10.05;6.72;;;;;;;;;;5048740;28;20160;-75
2021/12/12 07:06:27;;;;;;;9.82;6.65;;;;;;;;;;5049018;28;20060;-75
2021/12/12 07:08:55;;;;;;;10.15;6.55;;;;;;;;;;5050455;28;20140;-78
2021/12/12 07:11:25;;;;;;;10.60;6.82;;;;;;;;;;5036309;28;20036;-80
2021/12/12 07:13:51;;;;;;;7.25;4.90;;;;;;;;;;5034361;28;20040;-76
2021/12/12 07:16:19;;;;;;;8.57;5.75;;;;;;;;;;5048074;28;20033;-78
2021/12/12 07:18:45;;;;;;;9.93;6.25;;;;;;;;;;5049050;28;20040;-79
2021/12/12 07:21:14;;;;;;;13.60;6.60;;;;;;;;;;5050114;28;20136;-76
2021/12/12 07:23:43;;;;;;;9.80;6.47;;;;;;;;;;5031589;28;20040;-78
2021/12/12 07:26:11;;;;;;;9.88;6.07;;;;;;;;;;5031025;28;20254;-74
2021/12/12 07:28:39;;;;;;;10.57;6.68;;;;;;;;;;5031779;28;20192;-76
2021/12/12 07:31:08;;;;;;;7.18;4.78;;;;;;;;;;5049765;28;20087;-76
2021/12/12 07:33:34;;;;;;;7.70;5.78;;;;;;;;;;5047910;28;20041;-75
2021/12/12 07:36:03;;;;;;;8.57;5.82;;;;;;;;;;5047243;28;20475;-74
2021/12/12 07:38:30;;;;;;;9.27;6.00;;;;;;;;;;5030836;28;20068;-74
2021/12/12 07:40:57;;;;;;;10.27;6.07;;;;;;;;;;5048945;28;20033;-74
2021/12/12 07:43:23;;;;;;;11.02;6.95;;;;;;;;;;5029200;28;20078;-74
2021/12/12 07:45:49;;;;;;;11.25;6.32;;;;;;;;;;5047488;28;20439;-73
2021/12/12 07:48:15;;;;;;;10.55;6.38;;;;;;;;;;5047654;28;20075;-73
2021/12/12 07:50:44;;;;;;;8.55;5.97;;;;;;;;;;5045113;28;20172;-73
2021/12/12 07:53:10;;;;;;;7.90;5.60;;;;;;;;;;5045927;28;20055;-71
2021/12/12 07:55:39;;;;;;;9.55;6.43;;;;;;;;;;5045520;28;20446;-76
2021/12/12 07:58:11;;;;;;;10.23;6.57;;;;;;;;;;5043601;28;20407;-76
2021/12/12 08:00:39;;;;;;;10.90;5.97;;;;;;;;;;5044577;28;20067;-77
2021/12/12 08:03:05;;;;;;;11.05;7.10;;;;;;;;;;5043740;28;20041;-75
2021/12/12 08:05:33;;;;;;;10.18;6.40;;;;;;;;;;5045102;28;20041;-77
2021/12/12 08:08:03;;;;;;;10.65;6.55;;;;;;;;;;5043842;28;20850;-74
2021/12/12 08:10:29;;;;;;;9.32;6.07;;;;;;;;;;5044283;28;20112;-73
2021/12/12 08:12:55;;;;;;;8.80;6.10;;;;;;;;;;5045097;28;20053;-76
2021/12/12 08:15:21;;;;;;;11.10;7.25;;;;;;;;;;5044199;28;20095;-72
2021/12/12 08:17:47;;;;;;;10.02;6.95;;;;;;;;;;5043750;28;20041;-74
2021/12/12 08:20:15;;;;;;;7.28;5.70;;;;;;;;;;5042508;28;20041;-75
2021/12/12 08:22:41;;;;;;;9.38;6.07;;;;;;;;;;5043113;28;20090;-77
2021/12/12 08:25:09;;;;;;;9.10;5.78;;;;;;;;;;5043005;28;20110;-78
2021/12/12 08:27:35;;;;;;;7.53;5.65;;;;;;;;;;5043039;28;20048;-74
2021/12/12 08:30:01;;;;;;;8.38;6.00;;;;;;;;;;5042991;28;20483;-77
2021/12/12 08:32:28;;;;;;;10.30;6.55;;;;;;;;;;5042549;28;20021;-75
2021/12/12 08:34:53;;;;;;;10.10;5.88;;;;;;;;;;5042808;28;20060;-74
2021/12/12 08:37:19;;;;;;;8.75;6.38;;;;;;;;;;5041857;28;20145;-74
2021/12/12 08:39:45;;;;;;;6.93;5.28;;;;;;;;;;5042850;28;20029;-73
2021/12/12 08:42:12;;;;;;;8.20;5.55;;;;;;;;;;5041040;28;20411;-74
2021/12/12 08:44:38;;;;;;;7.82;5.68;;;;;;;;;;5041415;28;20406;-74
2021/12/12 08:47:07;;;;;;;9.02;6.03;;;;;;;;;;5042886;28;20047;-74
2021/12/12 08:49:38;;;;;;;7.95;5.95;;;;;;;;;;5043335;28;20048;-74
2021/12/12 08:52:14;;;;;;;7.07;5.53;;;;;;;;;;5043985;28;20036;-77
2021/12/12 08:54:42;;;;;;;7.75;5.47;;;;;;;;;;5041749;28;20601;-77
2021/12/12 08:57:20;;;;;;;7.82;5.72;;;;;;;;;;5041245;28;20056;-75
2021/12/12 08:59:47;;;;;;;7.82;5.63;;;;;;;;;;5040861;28;20438;-76
2021/12/12 09:02:16;;;;;;;9.25;6.05;;;;;;;;;;5042653;28;20677;-77
2021/12/12 09:04:47;;;;;;;8.40;5.85;;;;;;;;;;5041611;28;20051;-74
2021/12/12 09:07:28;;;;;;;8.10;5.10;;;;;;;;;;5042109;28;20068;-75
2021/12/12 09:10:31;;;;;;;9.63;5.63;;;;;;;;;;5042172;28;20048;-76
2021/12/12 09:13:06;;;;;;;7.57;5.25;;;;;;;;;;5040787;28;20053;-73
2021/12/12 09:16:11;;;;;;;6.97;4.97;;;;;;;;;;5040635;28;20576;-76
2021/12/12 09:18:48;;;;;;;6.90;4.90;;;;;;;;;;5028130;28;20296;-74
2021/12/12 09:21:26;;;;;;;7.95;5.18;;;;;;;;;;5040827;28;20060;-76
2021/12/12 09:24:05;;;;;;;6.28;4.53;;;;;;;;;;5041344;28;20032;-70
2021/12/12 09:26:34;;;;;;;5.82;4.78;;;;;;;;;;5040807;28;20052;-71
2021/12/12 09:29:18;;;;;;;6.63;5.00;;;;;;;;;;5040230;28;20053;-71
2021/12/12 09:32:09;;;;;;;7.15;5.45;;;;;;;;;;5041836;28;20080;-70
2021/12/12 09:34:49;;;;;;;7.70;4.78;;;;;;;;;;5041626;28;20067;-71
2021/12/12 09:37:20;;;;;;;7.68;5.07;;;;;;;;;;5041941;28;20036;-71
2021/12/12 09:39:59;;;;;;;4.90;3.95;;;;;;;;;;5041193;28;20039;-71
2021/12/12 09:42:27;;;;;;;5.32;4.03;;;;;;;;;;5042017;28;20047;-72
2021/12/12 09:45:02;;;;;;;6.60;4.43;;;;;;;;;;5041753;28;21040;-69
2021/12/12 09:48:00;;;;;;;5.88;4.03;;;;;;;;;;5041608;28;20468;-69
2021/12/12 09:54:00;;;;;;;5.72;3.50;;;;;;;;;;5041102;28;20044;-69
2021/12/12 09:56:51;;;;;;;4.15;3.45;;;;;;;;;;5003360;28;20100;-69
2021/12/12 09:59:42;;;;;;;5.15;4.18;;;;;;;;;;5029739;28;20044;-69
2021/12/12 10:02:14;;;;;;;6.82;4.20;;;;;;;;;;5038875;28;20037;-69
2021/12/12 10:05:16;;;;;;;5.60;4.70;;;;;;;;;;5040061;28;20032;-69
2021/12/12 10:08:07;;;;;;;4.38;3.78;;;;;;;;;;5035269;28;20029;-68
2021/12/12 10:10:38;;;;;;;5.40;4.43;;;;;;;;;;5038930;28;20037;-68
2021/12/12 10:13:16;;;;;;;5.90;4.55;;;;;;;;;;5038378;28;20039;-70
2021/12/12 10:15:47;;;;;;;5.28;3.83;;;;;;;;;;5039070;28;20410;-69
2021/12/12 10:18:21;;;;;;;5.85;4.57;;;;;;;;;;5039152;28;20033;-70
2021/12/12 10:21:10;;;;;;;5.20;4.35;;;;;;;;;;5039930;28;20040;-69
2021/12/12 10:24:04;;;;;;;5.85;4.40;;;;;;;;;;5040113;28;20025;-71
2021/12/12 10:26:35;;;;;;;4.13;3.72;;;;;;;;;;5040028;28;20068;-72
2021/12/12 10:29:13;;;;;;;4.90;3.70;;;;;;;;;;5038930;28;20033;-71
2021/12/12 10:31:45;;;;;;;5.75;4.50;;;;;;;;;;5040286;28;20033;-70
2021/12/12 10:34:20;;;;;;;4.57;3.85;;;;;;;;;;5038659;28;20051;-70
2021/12/12 10:37:03;;;;;;;4.68;4.18;;;;;;;;;;5040772;28;20861;-71
2021/12/12 10:39:34;;;;;;;5.20;4.00;;;;;;;;;;5039768;28;20123;-70
2021/12/12 10:42:23;;;;;;;5.03;4.27;;;;;;;;;;5039327;28;20048;-70
2021/12/12 10:44:52;;;;;;;5.45;4.40;;;;;;;;;;5039129;28;20303;-70
2021/12/12 10:47:31;;;;;;;7.70;4.70;;;;;;;;;;5037477;28;20045;-70
2021/12/12 10:50:13;;;;;;;5.88;4.38;;;;;;;;;;5039115;28;20041;-70
2021/12/12 10:52:48;;;;;;;4.30;3.83;;;;;;;;;;5039142;28;20488;-71
2021/12/12 10:55:45;;;;;;;4.40;3.67;;;;;;;;;;5038958;28;20552;-71
2021/12/12 10:58:38;;;;;;;6.45;4.38;;;;;;;;;;5030270;28;20185;-70
2021/12/12 11:01:11;;;;;;;7.43;4.97;;;;;;;;;;5039222;28;20041;-70
2021/12/12 11:03:54;;;;;;;3.30;3.00;;;;;;;;;;5041466;28;20037;-72
2021/12/12 11:06:31;;;;;;;3.33;3.03;;;;;;;;;;5040329;28;20033;-70
2021/12/12 11:09:01;;;;;;;6.35;4.65;;;;;;;;;;5041104;28;20091;-70
2021/12/12 11:11:34;;;;;;;5.60;4.05;;;;;;;;;;5039716;28;20671;-69
2021/12/12 11:14:18;;;;;;;5.90;3.92;;;;;;;;;;5040543;28;20052;-70
2021/12/12 11:16:59;;;;;;;4.60;3.92;;;;;;;;;;5038228;28;20063;-69
2021/12/12 11:19:30;;;;;;;5.30;4.00;;;;;;;;;;5039540;28;20063;-71
2021/12/12 11:22:12;;;;;;;6.50;4.85;;;;;;;;;;5039332;28;20036;-70
2021/12/12 11:24:42;;;;;;;3.17;2.88;;;;;;;;;;5042675;28;20099;-71
2021/12/12 11:27:16;;;;;;;8.70;4.85;;;;;;;;;;5042399;28;20032;-69
2021/12/12 11:29:51;;;;;;;5.85;4.80;;;;;;;;;;5043484;28;20069;-69
2021/12/12 11:32:23;;;;;;;4.13;3.70;;;;;;;;;;5040623;28;20388;-71
2021/12/12 11:34:50;;;;;;;;;;;;;;;;;;5044250;28;20037;-71
2021/12/12 11:37:21;;;;;;;3.80;3.22;;;;;;;;;;5042650;28;19940;-70
2021/12/12 11:40:19;;;;;;;3.45;3.15;;;;;;;;;;5042713;28;20871;-69
2021/12/12 11:43:19;;;;;;;3.17;2.78;;;;;;;;;;5042090;28;20082;-70
2021/12/12 11:45:59;;;;;;;3.72;3.20;;;;;;;;;;5041231;28;20146;-70
2021/12/12 11:48:49;;;;;;;3.15;2.72;;;;;;;;;;5042926;28;20040;-70
2021/12/12 11:51:23;;;;;;;2.97;2.65;;;;;;;;;;5041373;28;20036;-71
2021/12/12 11:53:55;;;;;;;3.45;3.00;;;;;;;;;;5042301;28;20286;-70
2021/12/12 11:56:26;;;;;;;3.65;3.15;;;;;;;;;;5042476;28;20495;-70
2021/12/12 11:59:13;;;;;;;4.07;3.60;;;;;;;;;;5041786;28;20072;-70
2021/12/12 12:01:49;;;;;;;3.83;3.33;;;;;;;;;;5039993;28;20115;-70
2021/12/12 12:04:46;;;;;;;4.57;3.88;;;;;;;;;;5042306;28;20032;-69
2021/12/12 12:07:20;;;;;;;4.32;3.70;;;;;;;;;;5042533;28;20549;-69
2021/12/12 12:10:29;;;;;;;4.25;3.10;;;;;;;;;;5040727;28;20037;-71
2021/12/12 12:13:12;;;;;;;3.05;2.75;;;;;;;;;;5038531;28;20052;-69
2021/12/12 12:15:56;;;;;;;3.38;3.08;;;;;;;;;;5041129;28;20036;-71
2021/12/12 12:18:33;;;;;;;4.68;3.17;;;;;;;;;;5042468;28;20453;-68
2021/12/12 12:21:16;;;;;;;4.03;3.33;;;;;;;;;;5042464;28;20029;-68
2021/12/12 12:24:15;;;;;;;3.53;2.70;;;;;;;;;;5042477;28;20071;-70
2021/12/12 12:26:52;;;;;;;3.25;2.65;;;;;;;;;;5033718;28;20398;-72
2021/12/12 12:29:21;;;;;;;2.40;2.13;;;;;;;;;;5042278;28;20029;-71
2021/12/12 12:32:08;;;;;;;3.72;2.70;;;;;;;;;;5042552;28;20029;-70
2021/12/12 12:34:55;;;;;;;3.30;3.00;;;;;;;;;;5037928;28;20033;-71
2021/12/12 12:37:58;;;;;;;3.20;2.90;;;;;;;;;;5041141;28;20475;-70
2021/12/12 12:40:45;;;;;;;4.10;3.20;;;;;;;;;;5041561;28;20850;-70
2021/12/12 12:43:32;;;;;;;3.53;3.10;;;;;;;;;;5041115;28;20040;-71
2021/12/12 12:46:28;;;;;;;3.30;3.00;;;;;;;;;;5041725;28;20097;-71
2021/12/12 12:49:31;;;;;;;4.55;3.05;;;;;;;;;;5042602;28;20042;-71
2021/12/12 12:52:38;;;;;;;4.10;3.30;;;;;;;;;;5042091;28;20055;-71
2021/12/12 12:55:30;;;;;;;3.15;2.80;;;;;;;;;;5041253;28;20041;-71
2021/12/12 12:58:07;;;;;;;3.28;2.88;;;;;;;;;;5042124;28;20033;-71
2021/12/12 13:00:34;;;;;;;4.05;2.72;;;;;;;;;;5041993;28;20039;-71
2021/12/12 13:03:10;;;;;;;3.42;3.13;;;;;;;;;;5042366;28;20051;-71
2021/12/12 13:05:49;;;;;;;3.42;2.67;;;;;;;;;;5042255;28;20033;-71
2021/12/12 13:08:47;;;;;;;3.13;2.80;;;;;;;;;;5040755;28;20041;-71
2021/12/12 13:11:17;;;;;;;2.97;2.58;;;;;;;;;;5042183;28;20036;-71
2021/12/12 13:14:01;;;;;;;3.08;2.78;;;;;;;;;;5041923;28;20035;-71
2021/12/12 13:16:46;;;;;;;2.65;2.45;;;;;;;;;;5041001;28;20032;-72
2021/12/12 13:19:24;;;;;;;2.42;2.22;;;;;;;;;;5041103;28;20156;-71
2021/12/12 13:22:14;;;;;;;2.22;2.00;;;;;;;;;;5041677;28;20044;-71
2021/12/12 13:24:57;;;;;;;2.90;2.20;;;;;;;;;;5040142;28;20376;-71
2021/12/12 13:27:59;;;;;;;2.58;2.38;;;;;;;;;;5041715;28;20043;-73
2021/12/12 13:30:40;;;;;;;3.42;2.03;;;;;;;;;;5040318;28;20124;-70
2021/12/12 13:33:32;;;;;;;2.20;2.00;;;;;;;;;;5034660;28;20043;-71
2021/12/12 13:36:31;;;;;;;3.60;2.50;;;;;;;;;;5029259;28;20064;-69
2021/12/12 13:39:05;;;;;;;3.65;2.40;;;;;;;;;;5040084;28;20421;-71
2021/12/12 13:42:06;;;;;;;2.38;1.90;;;;;;;;;;5039172;28;20074;-72
2021/12/12 13:45:17;;;;;;;1.95;1.75;;;;;;;;;;5039052;28;20037;-71
2021/12/12 13:48:21;;;;;;;2.03;1.80;;;;;;;;;;5039929;28;20395;-71
2021/12/12 13:51:03;;;;;;;2.40;2.20;;;;;;;;;;5042006;28;20045;-70
2021/12/12 13:53:50;;;;;;;2.30;2.10;;;;;;;;;;5040303;28;20052;-74
2021/12/12 13:56:41;;;;;;;2.33;2.13;;;;;;;;;;5040116;28;20044;-70
2021/12/12 13:59:33;;;;;;;2.70;2.13;;;;;;;;;;5039716;28;20531;-72
2021/12/12 14:02:02;;;;;;;2.25;2.05;;;;;;;;;;5039515;28;20033;-71
2021/12/12 14:04:51;;;;;;;4.25;2.28;;;;;;;;;;5039360;28;20040;-72
2021/12/12 14:07:21;;;;;;;2.20;2.00;;;;;;;;;;5039060;28;20122;-70
2021/12/12 14:09:48;;;;;;;1.90;1.80;;;;;;;;;;5037951;28;20067;-70
2021/12/12 14:12:15;;;;;;;2.10;1.90;;;;;;;;;;5038931;28;20036;-70
2021/12/12 14:14:58;;;;;;;2.80;2.10;;;;;;;;;;5039198;28;20092;-71
2021/12/12 14:17:25;;;;;;;2.33;2.00;;;;;;;;;;5024475;28;20035;-73
2021/12/12 14:19:57;;;;;;;2.03;1.92;;;;;;;;;;5039600;28;20044;-70
2021/12/12 14:22:24;;;;;;;2.25;2.00;;;;;;;;;;5039210;28;20495;-71
2021/12/12 14:24:51;;;;;;;3.30;2.25;;;;;;;;;;5038981;28;20127;-70
2021/12/12 14:27:19;;;;;;;3.03;2.60;;;;;;;;;;5038292;28;20033;-73
2021/12/12 14:29:47;;;;;;;2.30;2.10;;;;;;;;;;5038280;28;20052;-69
2021/12/12 14:32:37;;;;;;;2.50;2.30;;;;;;;;;;5038888;28;20032;-70
2021/12/12 14:35:05;;;;;;;2.83;2.47;;;;;;;;;;5038504;28;20562;-69
2021/12/12 14:37:34;;;;;;;2.60;2.40;;;;;;;;;;5038681;28;20087;-72
2021/12/12 14:40:08;;;;;;;2.58;2.38;;;;;;;;;;5038378;28;20127;-72
2021/12/12 14:42:34;;;;;;;4.70;2.67;;;;;;;;;;5039772;28;20553;-70
2021/12/12 14:45:23;;;;;;;2.92;2.60;;;;;;;;;;5039334;28;20681;-69
2021/12/12 14:47:56;;;;;;;3.00;2.70;;;;;;;;;;5039464;28;20495;-70
2021/12/12 14:50:25;;;;;;;3.08;2.72;;;;;;;;;;5039027;28;20032;-70
2021/12/12 14:53:04;;;;;;;2.85;2.65;;;;;;;;;;5040105;28;20025;-71
2021/12/12 14:56:03;;;;;;;2.88;2.60;;;;;;;;;;5039398;28;20487;-70
2021/12/12 14:58:37;;;;;;;2.42;2.20;;;;;;;;;;5037934;28;20411;-70
2021/12/12 15:01:14;;;;;;;2.53;2.25;;;;;;;;;;5042971;28;20033;-70
2021/12/12 15:03:43;;;;;;;3.03;2.50;;;;;;;;;;5043717;28;20045;-69
2021/12/12 15:06:15;;;;;;;3.42;2.53;;;;;;;;;;5042797;28;20551;-71
2021/12/12 15:08:46;;;;;;;2.58;2.20;;;;;;;;;;5042483;28;20048;-73
2021/12/12 15:11:19;;;;;;;2.60;2.40;;;;;;;;;;5036835;28;20040;-69
2021/12/12 15:13:47;;;;;;;2.97;2.40;;;;;;;;;;5043043;28;20876;-69
2021/12/12 15:16:25;;;;;;;3.13;2.50;;;;;;;;;;5042026;28;20056;-71
2021/12/12 15:18:51;;;;;;;3.42;2.40;;;;;;;;;;5041806;28;20546;-72
2021/12/12 15:21:32;;;;;;;8.38;2.38;;;;;;;;;;5040614;28;20033;-71
2021/12/12 15:24:05;;;;;;;2.80;2.33;;;;;;;;;;5042904;28;20047;-73
2021/12/12 15:26:36;;;;;;;2.45;2.20;;;;;;;;;;5042468;28;20796;-70
2021/12/12 15:29:05;;;;;;;3.65;2.47;;;;;;;;;;5043349;28;20070;-68
2021/12/12 15:31:39;;;;;;;2.90;2.60;;;;;;;;;;5040362;28;20036;-69
2021/12/12 15:34:09;;;;;;;6.13;2.58;;;;;;;;;;5041690;28;20514;-70
2021/12/12 15:36:38;;;;;;;2.38;2.08;;;;;;;;;;5039862;28;20479;-69